createdAt,value
2018-07-11T00:01:24.260Z,70.11
2018-07-11T00:03:54.103Z,69.61
2018-07-11T00:06:23.977Z,70.02
2018-07-11T00:08:52.527Z,69.13
2018-07-11T00:11:21.130Z,69.47
2018-07-11T00:13:50.070Z,69.74
2018-07-11T00:16:19.008Z,69.60
2018-07-11T00:18:47.619Z,69.70
2018-07-11T00:21:16.332Z,68.82
2018-07-11T00:23:45.084Z,69.56
2018-07-11T00:26:13.892Z,69.66
2018-07-11T00:28:42.746Z,70.57
2018-07-11T00:31:11.486Z,70.09
2018-07-11T00:33:40.270Z,70.13
2018-07-11T00:36:08.927Z,69.96
2018-07-11T00:38:37.509Z,69.68
2018-07-11T00:41:07.134Z,73.01
2018-07-11T00:43:35.933Z,71.72
2018-07-11T00:46:05.371Z,70.91
2018-07-11T00:48:34.803Z,70.97
2018-07-11T00:51:03.954Z,71.02
2018-07-11T00:53:35.270Z,70.91
2018-07-11T00:56:03.972Z,70.51
2018-07-11T00:58:37.231Z,72.81
2018-07-11T01:01:11.730Z,73.49
2018-07-11T01:03:57.479Z,71.60
2018-07-11T01:06:26.154Z,71.13
2018-07-11T01:08:56.675Z,70.79
2018-07-11T01:11:26.042Z,70.52
2018-07-11T01:13:54.995Z,71.03
2018-07-11T01:16:24.417Z,70.80
2018-07-11T01:19:04.343Z,70.84
2018-07-11T01:21:33.637Z,71.28
2018-07-11T01:24:02.302Z,71.44
2018-07-11T01:26:35.181Z,73.44
2018-07-11T01:29:04.198Z,72.41
2018-07-11T01:31:32.980Z,72.15
2018-07-11T01:34:01.911Z,72.00
2018-07-11T01:36:31.185Z,72.37
2018-07-11T01:39:00.694Z,73.14
2018-07-11T01:41:30.217Z,72.27
2018-07-11T01:43:59.078Z,73.95
2018-07-11T01:46:34.745Z,73.89
2018-07-11T01:49:03.512Z,73.88
2018-07-11T01:51:45.180Z,73.42
2018-07-11T01:54:14.093Z,75.63
2018-07-11T01:56:42.879Z,75.93
2018-07-11T01:59:11.670Z,75.03
2018-07-11T02:01:40.662Z,74.05
2018-07-11T02:04:09.448Z,73.70
2018-07-11T02:06:38.253Z,73.59
2018-07-11T02:09:07.238Z,73.69
2018-07-11T02:11:36.021Z,74.37
2018-07-11T02:14:05.737Z,73.48
2018-07-11T02:16:35.337Z,73.65
2018-07-11T02:19:04.878Z,74.08
2018-07-11T02:21:33.836Z,72.91
2018-07-11T02:24:04.305Z,73.71
2018-07-11T02:26:33.453Z,73.32
2018-07-11T02:29:02.189Z,76.02
2018-07-11T02:31:31.848Z,75.13
2018-07-11T02:34:01.260Z,75.09
2018-07-11T02:36:30.144Z,73.29
2018-07-11T02:38:58.795Z,73.71
2018-07-11T02:41:27.515Z,73.50
2018-07-11T02:43:56.401Z,73.00
2018-07-11T02:46:30.226Z,72.93
2018-07-11T02:48:59.099Z,74.13
2018-07-11T02:51:27.886Z,73.37
2018-07-11T02:53:56.673Z,74.02
2018-07-11T02:56:25.434Z,74.23
2018-07-11T02:58:54.043Z,73.44
2018-07-11T03:01:22.747Z,75.65
2018-07-11T03:03:51.516Z,75.45
2018-07-11T03:06:20.201Z,74.81
2018-07-11T03:08:48.990Z,74.29
2018-07-11T03:11:17.791Z,74.65
2018-07-11T03:13:46.565Z,73.71
2018-07-11T03:16:15.452Z,74.87
2018-07-11T03:18:44.240Z,76.44
2018-07-11T03:21:13.040Z,76.71
2018-07-11T03:23:41.826Z,75.00
2018-07-11T03:26:10.605Z,75.46
2018-07-11T03:28:39.417Z,74.47
2018-07-11T03:31:08.181Z,74.42
2018-07-11T03:33:36.957Z,74.02
2018-07-11T03:36:05.661Z,74.31
2018-07-11T03:38:34.336Z,74.72
2018-07-11T03:41:03.110Z,74.29
2018-07-11T03:43:31.880Z,74.38
2018-07-11T03:46:00.610Z,74.14
2018-07-11T03:48:29.382Z,73.67
2018-07-11T03:50:58.360Z,73.63
2018-07-11T03:53:26.971Z,73.22
2018-07-11T03:55:55.662Z,73.32
2018-07-11T03:58:24.389Z,73.70
2018-07-11T04:00:53.023Z,73.38
2018-07-11T04:03:21.801Z,73.35
2018-07-11T04:05:50.399Z,72.97
2018-07-11T04:08:19.046Z,72.41
2018-07-11T04:10:47.732Z,71.70
2018-07-11T04:13:17.172Z,72.00
2018-07-11T04:15:45.843Z,71.67
2018-07-11T04:18:29.990Z,71.43
2018-07-11T04:21:00.237Z,70.67
2018-07-11T04:23:29.306Z,70.06
2018-07-11T04:25:58.401Z,69.88
2018-07-11T04:28:28.315Z,69.28
2018-07-11T04:30:57.410Z,68.93
2018-07-11T04:33:26.650Z,68.50
2018-07-11T04:35:55.911Z,68.38
2018-07-11T04:38:25.221Z,67.59
2018-07-11T04:40:53.934Z,67.55
2018-07-11T04:43:24.038Z,66.52
2018-07-11T04:45:52.805Z,66.29
2018-07-11T04:48:21.688Z,65.70
2018-07-11T04:50:51.675Z,65.39
2018-07-11T04:53:22.846Z,65.24
2018-07-11T04:55:59.120Z,64.41
2018-07-11T04:58:28.635Z,64.78
2018-07-11T05:00:58.098Z,64.27
2018-07-11T05:03:27.419Z,64.02
2018-07-11T05:05:56.458Z,64.15
2018-07-11T05:08:26.019Z,63.27
2018-07-11T05:10:54.734Z,62.96
2018-07-11T05:13:23.901Z,62.58
2018-07-11T05:15:53.406Z,62.34
2018-07-11T05:18:22.193Z,62.34
2018-07-11T05:20:50.899Z,62.20
2018-07-11T05:23:19.563Z,62.59
2018-07-11T05:25:48.233Z,62.53
2018-07-11T05:28:17.041Z,62.54
2018-07-11T05:30:45.694Z,61.39
2018-07-11T05:33:14.388Z,61.80
2018-07-11T05:35:43.132Z,60.93
2018-07-11T05:38:11.826Z,60.80
2018-07-11T05:40:41.113Z,60.48
2018-07-11T05:43:10.028Z,59.53
2018-07-11T05:45:38.685Z,60.39
2018-07-11T05:48:07.564Z,59.86
2018-07-11T05:50:36.239Z,59.47
2018-07-11T05:53:05.527Z,59.22
2018-07-11T05:55:34.222Z,57.70
2018-07-11T05:58:02.898Z,57.86
2018-07-11T06:00:31.584Z,56.25
2018-07-11T06:03:00.373Z,56.16
2018-07-11T06:05:29.216Z,56.00
2018-07-11T06:07:57.947Z,56.02
2018-07-11T06:10:26.541Z,54.91
2018-07-11T06:12:55.216Z,55.38
2018-07-11T06:15:23.910Z,54.61
2018-07-11T06:17:52.511Z,53.59
2018-07-11T06:20:21.518Z,53.09
2018-07-11T06:22:50.266Z,52.88
2018-07-11T06:25:19.058Z,51.66
2018-07-11T06:27:47.855Z,52.14
2018-07-11T06:30:16.629Z,51.90
2018-07-11T06:32:45.298Z,52.42
2018-07-11T06:35:13.921Z,49.77
2018-07-11T06:37:42.833Z,51.15
2018-07-11T06:40:11.575Z,50.95
2018-07-11T06:42:40.313Z,49.89
2018-07-11T06:45:08.996Z,49.38
2018-07-11T06:47:37.731Z,49.72
2018-07-11T06:50:06.417Z,49.47
2018-07-11T06:52:35.105Z,49.18
2018-07-11T06:55:03.874Z,49.63
2018-07-11T06:57:32.539Z,48.84
2018-07-11T07:00:01.261Z,47.67
2018-07-11T07:02:29.944Z,48.62
2018-07-11T07:04:58.736Z,45.80
2018-07-11T07:07:27.318Z,45.13
2018-07-11T07:09:56.718Z,45.66
2018-07-11T07:12:25.506Z,44.26
2018-07-11T07:14:54.193Z,45.23
2018-07-11T07:17:22.874Z,45.61
2018-07-11T07:19:51.664Z,45.40
2018-07-11T07:22:20.246Z,44.08
2018-07-11T07:24:48.843Z,45.53
2018-07-11T07:27:17.515Z,44.02
2018-07-11T07:29:46.097Z,44.41
2018-07-11T07:32:16.233Z,45.12
2018-07-11T07:34:45.073Z,44.83
2018-07-11T07:37:13.692Z,43.88
2018-07-11T07:39:42.478Z,43.63
2018-07-11T07:42:11.101Z,42.06
2018-07-11T07:44:39.810Z,43.40
2018-07-11T07:47:12.818Z,43.39
2018-07-11T07:49:42.011Z,42.60
2018-07-11T07:52:10.717Z,42.88
2018-07-11T07:54:39.430Z,40.78
2018-07-11T07:57:08.194Z,41.04
2018-07-11T07:59:36.927Z,41.23
2018-07-11T08:02:05.685Z,40.42
2018-07-11T08:04:34.349Z,39.46
2018-07-11T08:07:03.327Z,39.93
2018-07-11T08:09:32.025Z,40.02
2018-07-11T08:12:00.711Z,39.62
2018-07-11T08:14:29.396Z,40.02
2018-07-11T08:16:58.308Z,40.07
2018-07-11T08:19:27.074Z,39.25
2018-07-11T08:21:55.866Z,39.02
2018-07-11T08:24:35.798Z,40.14
2018-07-11T08:27:19.139Z,40.25
2018-07-11T08:29:56.763Z,39.33
2018-07-11T08:34:43.343Z,37.23
2018-07-11T08:38:57.850Z,36.98
2018-07-11T08:41:38.267Z,37.60
2018-07-11T08:44:20.161Z,37.39
2018-07-11T08:47:58.819Z,36.27
2018-07-11T08:54:50.332Z,36.86
2018-07-11T08:57:36.791Z,35.86
2018-07-11T09:00:14.390Z,37.49
2018-07-11T09:02:54.835Z,41.09
2018-07-11T09:07:40.080Z,40.87
2018-07-11T09:12:28.130Z,39.69
2018-07-11T09:17:16.281Z,39.90
2018-07-11T09:20:53.989Z,41.35
2018-07-11T09:25:34.380Z,41.62
2018-07-11T09:28:02.998Z,41.57
2018-07-11T09:30:31.760Z,42.66
2018-07-11T09:33:00.415Z,43.00
2018-07-11T09:35:29.200Z,42.01
2018-07-11T09:37:57.886Z,43.48
2018-07-11T09:40:26.398Z,43.65
2018-07-11T09:42:55.007Z,43.37
2018-07-11T09:45:23.714Z,44.40
2018-07-11T09:47:52.339Z,45.17
2018-07-11T09:50:21.108Z,45.23
2018-07-11T09:52:49.752Z,44.40
2018-07-11T09:55:19.808Z,44.83
2018-07-11T09:57:48.403Z,44.35
2018-07-11T10:00:22.324Z,44.90
2018-07-11T10:02:51.088Z,44.00
2018-07-11T10:05:20.798Z,44.28
2018-07-11T10:07:49.790Z,43.35
2018-07-11T10:10:18.315Z,43.21
2018-07-11T10:12:47.001Z,43.48
2018-07-11T10:15:15.640Z,43.46
2018-07-11T10:17:44.285Z,42.86
2018-07-11T10:20:12.841Z,44.03
2018-07-11T10:22:41.593Z,43.58
2018-07-11T10:25:10.239Z,44.06
2018-07-11T10:27:40.715Z,45.27
2018-07-11T10:30:09.379Z,45.54
2018-07-11T10:32:39.353Z,44.87
2018-07-11T10:35:07.930Z,44.82
2018-07-11T10:37:37.701Z,44.89
2018-07-11T10:40:06.282Z,44.79
2018-07-11T10:42:34.915Z,44.66
2018-07-11T10:45:03.462Z,43.76
2018-07-11T10:47:32.483Z,44.69
2018-07-11T10:50:01.069Z,44.35
2018-07-11T10:52:29.711Z,45.52
2018-07-11T10:54:58.351Z,45.79
2018-07-11T10:57:26.938Z,46.10
2018-07-11T10:59:57.714Z,44.88
2018-07-11T11:02:26.400Z,45.36
2018-07-11T11:04:55.734Z,44.62
2018-07-11T11:07:24.384Z,44.18
2018-07-11T11:09:53.144Z,44.46
2018-07-11T11:12:21.752Z,45.23
2018-07-11T11:14:50.442Z,44.84
2018-07-11T11:17:19.125Z,44.70
2018-07-11T11:19:47.914Z,44.65
2018-07-11T11:22:16.474Z,43.60
2018-07-11T11:24:45.284Z,43.77
2018-07-11T11:27:13.863Z,43.17
2018-07-11T11:29:42.391Z,43.32
2018-07-11T11:32:11.132Z,42.94
2018-07-11T11:34:39.737Z,43.29
2018-07-11T11:37:08.351Z,43.62
2018-07-11T11:39:36.972Z,44.51
2018-07-11T11:42:05.648Z,43.59
2018-07-11T11:44:34.411Z,43.64
2018-07-11T11:47:03.382Z,44.57
2018-07-11T11:49:32.483Z,43.55
2018-07-11T11:52:01.334Z,43.13
2018-07-11T11:54:30.221Z,44.06
2018-07-11T11:56:58.908Z,44.00
2018-07-11T11:59:27.597Z,42.75
2018-07-11T12:01:56.277Z,41.98
2018-07-11T12:04:24.962Z,42.50
2018-07-11T12:06:53.647Z,41.63
2018-07-11T12:09:22.159Z,40.62
2018-07-11T12:11:50.687Z,43.04
2018-07-11T12:14:19.473Z,42.63
2018-07-11T12:16:48.818Z,42.84
2018-07-11T12:19:18.204Z,42.97
2018-07-11T12:21:46.986Z,42.66
2018-07-11T12:24:15.776Z,44.32
2018-07-11T12:26:44.820Z,42.77
2018-07-11T12:29:13.457Z,41.85
2018-07-11T12:31:42.591Z,40.12
2018-07-11T12:34:11.233Z,43.05
2018-07-11T12:36:40.126Z,41.92
2018-07-11T12:39:08.750Z,43.45
2018-07-11T12:41:37.699Z,42.96
2018-07-11T12:44:06.384Z,42.45
2018-07-11T12:46:35.519Z,43.45
2018-07-11T12:49:06.255Z,42.80
2018-07-11T12:51:35.354Z,43.40
2018-07-11T12:54:04.811Z,41.84
2018-07-11T12:56:33.495Z,41.93
2018-07-11T12:59:02.078Z,41.67
2018-07-11T13:01:30.667Z,42.20
2018-07-11T13:03:59.961Z,41.77
2018-07-11T13:06:30.041Z,41.26
2018-07-11T13:08:58.767Z,42.89
2018-07-11T13:11:27.407Z,42.34
2018-07-11T13:13:56.038Z,42.61
2018-07-11T13:16:24.795Z,42.27
2018-07-11T13:18:53.404Z,42.78
2018-07-11T13:21:22.680Z,43.20
2018-07-11T13:23:51.290Z,42.44
2018-07-11T13:26:20.178Z,42.40
2018-07-11T13:28:48.719Z,42.77
2018-07-11T13:31:17.446Z,42.68
2018-07-11T13:33:46.039Z,43.09
2018-07-11T13:36:14.615Z,42.61
2018-07-11T13:38:43.250Z,42.60
2018-07-11T13:41:11.947Z,42.51
2018-07-11T13:43:40.511Z,42.98
2018-07-11T13:46:09.263Z,42.58
2018-07-11T13:48:37.978Z,42.48
2018-07-11T13:51:06.627Z,41.99
2018-07-11T13:53:35.264Z,42.43
2018-07-11T13:56:04.506Z,42.21
2018-07-11T13:58:34.295Z,42.94
2018-07-11T14:01:03.617Z,43.27
2018-07-11T14:03:32.406Z,43.36
2018-07-11T14:06:00.971Z,43.71
2018-07-11T14:08:30.286Z,44.07
2018-07-11T14:10:58.972Z,44.25
2018-07-11T14:13:27.658Z,43.75
2018-07-11T14:15:56.445Z,43.74
2018-07-11T14:18:25.643Z,43.69
2018-07-11T14:20:54.329Z,43.30
2018-07-11T14:23:34.131Z,43.87
2018-07-11T14:26:03.230Z,43.20
2018-07-11T14:28:32.824Z,43.35
2018-07-11T14:31:02.548Z,42.69
2018-07-11T14:33:33.180Z,43.40
2018-07-11T14:36:02.272Z,43.07
2018-07-11T14:38:31.612Z,42.69
2018-07-11T14:41:02.919Z,42.68
2018-07-11T14:43:32.052Z,42.38
2018-07-11T14:46:00.840Z,42.72
2018-07-11T14:48:31.025Z,42.60
2018-07-11T14:51:00.835Z,43.02
2018-07-11T14:53:29.859Z,42.69
2018-07-11T14:55:58.654Z,42.06
2018-07-11T14:58:27.549Z,42.54
2018-07-11T15:00:56.331Z,42.94
2018-07-11T15:03:25.010Z,43.16
2018-07-11T15:05:53.692Z,43.60
2018-07-11T15:08:22.408Z,43.99
2018-07-11T15:10:51.054Z,43.89
2018-07-11T15:13:19.860Z,44.20
2018-07-11T15:15:48.545Z,44.20
2018-07-11T15:18:17.167Z,43.67
2018-07-11T15:20:45.916Z,43.80
2018-07-11T15:23:14.515Z,43.80
2018-07-11T15:25:43.304Z,43.97
2018-07-11T15:28:11.972Z,44.60
2018-07-11T15:30:43.934Z,44.46
2018-07-11T15:33:12.535Z,44.36
2018-07-11T15:35:41.304Z,44.60
2018-07-11T15:38:09.990Z,44.12
2018-07-11T15:40:39.236Z,43.57
2018-07-11T15:43:07.872Z,43.62
2018-07-11T15:45:36.423Z,43.48
2018-07-11T15:48:05.176Z,41.53
2018-07-11T15:50:34.076Z,43.42
2018-07-11T15:53:02.799Z,42.80
2018-07-11T15:55:32.689Z,41.87
2018-07-11T15:58:07.345Z,41.80
2018-07-11T16:00:38.419Z,41.79
2018-07-11T16:03:07.227Z,39.47
2018-07-11T16:05:40.482Z,37.66
2018-07-11T16:08:12.359Z,38.68
2018-07-11T16:10:47.761Z,37.74
2018-07-11T16:13:20.017Z,37.80
2018-07-11T16:15:48.619Z,36.20
2018-07-11T16:18:17.502Z,37.08
2018-07-11T16:20:46.206Z,34.52
2018-07-11T16:23:15.226Z,34.90
2018-07-11T16:25:44.605Z,35.81
2018-07-11T16:28:13.350Z,34.79
2018-07-11T16:30:42.038Z,34.71
2018-07-11T16:33:10.686Z,35.55
2018-07-11T16:35:39.375Z,34.40
2018-07-11T16:38:08.033Z,36.93
2018-07-11T16:40:36.648Z,34.84
2018-07-11T16:43:06.476Z,37.68
2018-07-11T16:45:35.172Z,37.32
2018-07-11T16:48:03.948Z,37.55
2018-07-11T16:50:32.531Z,37.51
2018-07-11T16:53:01.325Z,37.45
2018-07-11T16:55:30.927Z,37.36
2018-07-11T16:57:59.562Z,37.01
2018-07-11T17:00:32.215Z,36.78
2018-07-11T17:03:06.510Z,37.41
2018-07-11T17:06:09.906Z,37.10
2018-07-11T17:08:43.966Z,37.40
2018-07-11T17:11:16.850Z,39.01
2018-07-11T17:13:55.667Z,38.18
2018-07-11T17:16:30.712Z,37.16
2018-07-11T17:19:09.611Z,38.30
2018-07-11T17:21:43.025Z,39.26
2018-07-11T17:24:13.447Z,38.98
2018-07-11T17:26:43.578Z,40.06
2018-07-11T17:29:20.474Z,41.22
2018-07-11T17:31:51.385Z,41.41
2018-07-11T17:34:20.087Z,41.66
2018-07-11T17:36:51.043Z,42.42
2018-07-11T17:39:20.184Z,41.47
2018-07-11T17:41:48.779Z,41.89
2018-07-11T17:44:19.003Z,41.86
2018-07-11T17:46:47.804Z,41.08
2018-07-11T17:49:25.718Z,41.37
2018-07-11T17:52:01.093Z,41.06
2018-07-11T17:55:20.007Z,40.77
2018-07-11T17:57:54.182Z,40.03
2018-07-11T18:01:47.620Z,39.74
2018-07-11T18:04:57.267Z,40.21
2018-07-11T18:07:36.270Z,39.90
2018-07-11T18:10:09.447Z,39.93
2018-07-11T18:12:57.242Z,39.52
2018-07-11T18:15:33.877Z,39.11
2018-07-11T18:19:20.199Z,39.23
2018-07-11T18:22:04.594Z,39.16
2018-07-11T18:24:43.993Z,39.81
2018-07-11T18:27:22.423Z,39.96
2018-07-11T18:31:00.742Z,39.53
2018-07-11T18:33:44.120Z,39.64
2018-07-11T18:38:25.402Z,40.61
2018-07-11T18:41:03.619Z,41.14
2018-07-11T18:44:43.473Z,41.62
2018-07-11T18:47:23.769Z,41.93
2018-07-11T18:52:10.003Z,41.86
2018-07-11T18:56:50.868Z,41.63
2018-07-11T18:59:31.331Z,41.75
2018-07-11T19:02:05.909Z,41.76
2018-07-11T19:04:49.431Z,41.96
2018-07-11T19:07:38.982Z,42.13
2018-07-11T19:10:07.806Z,43.08
2018-07-11T19:12:52.228Z,42.29
2018-07-11T19:15:32.824Z,42.61
2018-07-11T19:18:10.931Z,42.66
2018-07-11T19:20:45.468Z,42.96
2018-07-11T19:23:25.199Z,43.13
2018-07-11T19:27:00.238Z,43.20
2018-07-11T19:30:15.994Z,43.96
2018-07-11T19:33:05.982Z,44.28
2018-07-11T19:35:45.755Z,44.41
2018-07-11T19:38:37.164Z,44.52
2018-07-11T19:41:28.419Z,45.32
2018-07-11T19:46:20.843Z,45.00
2018-07-11T19:49:00.740Z,45.82
2018-07-11T19:51:39.243Z,46.26
2018-07-11T19:54:16.092Z,46.67
2018-07-11T19:56:46.614Z,47.56
2018-07-11T19:59:16.362Z,47.16
2018-07-11T20:01:46.644Z,47.90
2018-07-11T20:04:16.051Z,49.14
2018-07-11T20:06:45.345Z,48.62
2018-07-11T20:09:14.133Z,48.89
2018-07-11T20:11:42.886Z,49.03
2018-07-11T20:14:11.476Z,49.25
2018-07-11T20:16:40.159Z,49.46
2018-07-11T20:19:09.591Z,50.21
2018-07-11T20:21:38.836Z,50.87
2018-07-11T20:24:07.453Z,50.52
2018-07-11T20:26:36.084Z,50.72
2018-07-11T20:29:04.950Z,50.58
2018-07-11T20:31:33.735Z,50.97
2018-07-11T20:34:02.419Z,51.40
2018-07-11T20:36:31.003Z,51.37
2018-07-11T20:38:59.655Z,51.66
2018-07-11T20:41:28.579Z,51.42
2018-07-11T20:43:57.235Z,52.21
2018-07-11T20:46:26.476Z,52.49
2018-07-11T20:48:55.353Z,52.82
2018-07-11T20:51:23.855Z,53.00
2018-07-11T20:53:52.504Z,52.81
2018-07-11T20:56:21.100Z,53.44
2018-07-11T20:59:00.860Z,53.46
2018-07-11T21:01:40.693Z,53.77
2018-07-11T21:04:21.207Z,53.66
2018-07-11T21:07:00.927Z,54.18
2018-07-11T21:10:39.645Z,54.76
2018-07-11T21:13:19.461Z,54.80
2018-07-11T21:18:01.225Z,55.15
2018-07-11T21:20:29.859Z,54.59
2018-07-11T21:22:58.463Z,55.25
2018-07-11T21:25:27.131Z,55.45
2018-07-11T21:27:55.812Z,55.64
2018-07-11T21:30:24.543Z,54.96
2018-07-11T21:32:53.100Z,56.05
2018-07-11T21:35:21.663Z,56.71
2018-07-11T21:37:50.246Z,56.53
2018-07-11T21:40:18.886Z,56.41
2018-07-11T21:42:47.515Z,56.24
2018-07-11T21:45:16.650Z,56.45
2018-07-11T21:47:45.239Z,56.99
2018-07-11T21:50:13.878Z,57.11
2018-07-11T21:52:42.489Z,56.65
2018-07-11T21:55:11.134Z,56.76
2018-07-11T21:57:40.032Z,56.86
2018-07-11T22:00:08.773Z,56.80
2018-07-11T22:02:37.257Z,56.71
2018-07-11T22:05:05.855Z,57.18
2018-07-11T22:07:34.470Z,57.43
2018-07-11T22:10:03.258Z,57.57
2018-07-11T22:12:32.620Z,58.35
2018-07-11T22:15:01.199Z,58.35
2018-07-11T22:17:40.989Z,57.93
2018-07-11T22:20:08.341Z,58.03
2018-07-11T22:22:35.798Z,58.03
2018-07-11T22:25:03.150Z,57.95
2018-07-11T22:27:30.535Z,58.84
2018-07-11T22:29:57.863Z,58.65
2018-07-11T22:32:25.159Z,59.08
2018-07-11T22:34:52.506Z,59.22
2018-07-11T22:37:19.819Z,59.55
2018-07-11T22:39:47.094Z,59.07
2018-07-11T22:42:14.527Z,59.55
2018-07-11T22:44:41.883Z,59.55
2018-07-11T22:47:09.159Z,60.14
2018-07-11T22:49:40.595Z,59.72
2018-07-11T22:52:07.869Z,59.67
2018-07-11T22:54:35.291Z,59.83
2018-07-11T22:57:02.593Z,59.79
2018-07-11T22:59:29.904Z,60.87
2018-07-11T23:01:57.206Z,59.67
2018-07-11T23:04:24.489Z,60.47
2018-07-11T23:06:51.857Z,60.65
2018-07-11T23:09:19.127Z,61.26
2018-07-11T23:11:46.565Z,62.31
2018-07-11T23:14:13.919Z,61.67
2018-07-11T23:16:41.887Z,61.77
2018-07-11T23:19:09.156Z,62.14
2018-07-11T23:21:36.701Z,62.48
2018-07-11T23:24:04.976Z,62.98
2018-07-11T23:26:32.328Z,62.41
2018-07-11T23:28:59.785Z,61.42
2018-07-11T23:31:27.063Z,60.70
2018-07-11T23:33:54.494Z,60.16
2018-07-11T23:36:21.763Z,60.40
2018-07-11T23:38:49.203Z,60.54
2018-07-11T23:43:47.654Z,59.73
2018-07-11T23:46:15.053Z,60.02
2018-07-11T23:48:42.407Z,60.09
2018-07-11T23:51:09.761Z,59.94
2018-07-11T23:53:37.117Z,59.51
2018-07-11T23:56:04.469Z,60.98
2018-07-11T23:58:31.823Z,60.53
